Time;durP1;ratioP1;P1;durP2;ratioP2;P2;SDS_P1;SDS_P2;PMS_P1;PMS_P2;Temp;Humidity;BMP_temperature;BMP_pressure;BME280_temperature;BME280_humidity;BME280_pressure;Samples;Min_cycle;Max_cycle;Signal;HPM_P1;HPM_P2
2022/04/24 00:01:02;;;;;;;8.43;5.83;;;7.40;99.90;;;;;;5088668;27;20198;-40
2022/04/24 00:03:29;;;;;;;10.07;5.90;;;7.30;99.90;;;;;;5091557;27;20236;-42
2022/04/24 00:05:56;;;;;;;12.23;7.13;;;7.40;99.90;;;;;;5088856;28;20235;-44
2022/04/24 00:08:25;;;;;;;10.37;6.53;;;7.30;99.90;;;;;;5078875;27;20223;-41
2022/04/24 00:10:51;;;;;;;10.13;7.07;;;7.30;99.90;;;;;;5117991;27;20190;-39
2022/04/24 00:13:18;;;;;;;9.90;7.13;;;7.30;99.90;;;;;;5096764;28;20217;-40
2022/04/24 00:15:46;;;;;;;8.73;6.40;;;7.30;99.90;;;;;;5097451;27;20231;-40
2022/04/24 00:18:13;;;;;;;11.23;7.37;;;7.30;99.90;;;;;;5094364;27;20561;-40
2022/04/24 00:20:40;;;;;;;9.63;7.23;;;7.30;99.90;;;;;;5095484;27;20201;-40
2022/04/24 00:23:07;;;;;;;11.17;7.13;;;7.30;99.90;;;;;;5101590;27;20221;-39
2022/04/24 00:25:35;;;;;;;9.40;7.43;;;7.30;99.90;;;;;;5095533;27;20206;-41
2022/04/24 00:28:02;;;;;;;13.00;7.70;;;7.30;99.90;;;;;;5098893;27;20198;-41
2022/04/24 00:30:28;;;;;;;10.40;7.93;;;7.30;99.90;;;;;;5096215;27;20205;-44
2022/04/24 00:32:55;;;;;;;10.93;7.07;;;7.30;99.90;;;;;;5113041;27;20221;-40
2022/04/24 00:35:22;;;;;;;12.30;7.53;;;7.20;99.90;;;;;;5091529;27;20209;-40
2022/04/24 00:37:50;;;;;;;13.60;8.40;;;7.20;99.90;;;;;;5104233;28;20217;-40
2022/04/24 00:40:18;;;;;;;14.00;7.70;;;7.20;99.90;;;;;;5088719;27;20193;-41
2022/04/24 00:42:46;;;;;;;12.87;8.20;;;7.20;99.90;;;;;;5089142;27;20221;-40
2022/04/24 00:45:13;;;;;;;8.43;7.20;;;7.20;99.90;;;;;;5090961;27;20641;-40
2022/04/24 00:47:44;;;;;;;11.63;8.00;;;7.10;99.90;;;;;;5088118;28;20257;-42
2022/04/24 00:50:11;;;;;;;11.87;7.77;;;7.20;99.90;;;;;;5090043;27;20202;-42
2022/04/24 00:52:39;;;;;;;11.80;7.30;;;7.20;99.90;;;;;;5100815;28;20312;-41
2022/04/24 00:55:07;;;;;;;8.87;6.40;;;7.20;99.90;;;;;;5091707;27;20544;-42
2022/04/24 00:57:34;;;;;;;7.77;5.97;;;7.20;99.90;;;;;;5110382;27;20292;-39
2022/04/24 01:00:03;;;;;;;11.40;6.60;;;7.20;99.90;;;;;;5094118;28;20583;-40
2022/04/24 01:02:31;;;;;;;6.97;6.10;;;7.20;99.90;;;;;;5096804;27;20334;-40
2022/04/24 01:04:58;;;;;;;9.40;5.77;;;7.20;99.90;;;;;;5092198;27;20209;-39
2022/04/24 01:07:26;;;;;;;8.40;5.43;;;7.20;99.90;;;;;;5086033;28;20193;-40
2022/04/24 01:09:52;;;;;;;7.23;5.67;;;7.20;99.90;;;;;;5088974;28;20254;-40
2022/04/24 01:12:19;;;;;;;11.60;5.87;;;7.10;99.90;;;;;;5087151;27;20253;-42
2022/04/24 01:14:46;;;;;;;7.30;4.97;;;7.10;99.90;;;;;;5094263;27;20202;-44
2022/04/24 01:17:15;;;;;;;8.00;4.73;;;7.10;99.90;;;;;;5083545;27;20201;-42
2022/04/24 01:19:43;;;;;;;6.43;4.53;;;7.10;99.90;;;;;;5100744;27;20694;-40
2022/04/24 01:22:11;;;;;;;7.23;4.80;;;7.00;99.90;;;;;;5092066;27;20229;-40
2022/04/24 01:24:38;;;;;;;5.57;4.53;;;7.00;99.90;;;;;;5094202;27;20201;-40
2022/04/24 01:27:05;;;;;;;6.13;4.77;;;7.00;99.90;;;;;;5092562;27;20203;-39
2022/04/24 01:29:32;;;;;;;6.13;4.67;;;7.00;99.90;;;;;;5100791;27;20190;-39
2022/04/24 01:31:59;;;;;;;5.60;4.23;;;6.90;99.90;;;;;;5096555;28;20217;-41
2022/04/24 01:34:26;;;;;;;5.83;4.00;;;6.90;99.90;;;;;;5091819;28;20202;-39
2022/04/24 01:36:53;;;;;;;5.73;4.00;;;6.90;99.90;;;;;;5079788;27;20903;-41
2022/04/24 01:39:21;;;;;;;5.07;4.00;;;6.90;99.90;;;;;;5095011;28;20213;-40
2022/04/24 01:41:48;;;;;;;4.97;4.13;;;6.90;99.90;;;;;;5080856;27;20220;-40
2022/04/24 01:44:14;;;;;;;6.30;4.27;;;6.90;99.90;;;;;;5106979;27;20567;-39
2022/04/24 01:46:41;;;;;;;5.23;4.03;;;6.90;99.90;;;;;;5091449;28;20238;-41
2022/04/24 01:49:08;;;;;;;4.73;3.83;;;6.90;99.90;;;;;;5096701;28;20208;-40
2022/04/24 01:51:35;;;;;;;7.07;4.10;;;6.90;99.90;;;;;;5095125;28;20198;-39
2022/04/24 01:54:04;;;;;;;9.17;4.50;;;6.90;99.90;;;;;;5093626;28;20196;-39
2022/04/24 01:56:32;;;;;;;4.17;3.53;;;6.80;99.90;;;;;;5084998;28;20208;-42
2022/04/24 01:58:59;;;;;;;4.90;3.60;;;6.80;99.90;;;;;;5107486;27;20240;-39
2022/04/24 02:01:26;;;;;;;5.10;3.83;;;6.80;99.90;;;;;;5094146;27;20190;-39
2022/04/24 02:03:52;;;;;;;6.03;3.57;;;6.80;99.90;;;;;;5081421;28;20212;-39
2022/04/24 02:06:19;;;;;;;4.20;3.53;;;6.80;99.90;;;;;;5096081;28;20202;-38
2022/04/24 02:08:46;;;;;;;4.70;3.37;;;6.80;99.90;;;;;;5093748;28;20939;-39
2022/04/24 02:11:12;;;;;;;6.27;3.30;;;6.80;99.90;;;;;;5089189;28;20246;-39
2022/04/24 02:13:41;;;;;;;5.00;3.30;;;6.70;99.90;;;;;;5091431;27;20228;-39
2022/04/24 02:16:07;;;;;;;4.00;3.60;;;6.70;99.90;;;;;;5101674;27;20239;-39
2022/04/24 02:18:34;;;;;;;3.70;3.27;;;6.70;99.90;;;;;;5089592;28;20225;-39
2022/04/24 02:21:01;;;;;;;5.53;3.53;;;6.70;99.90;;;;;;5094434;28;20207;-39
2022/04/24 02:23:28;;;;;;;4.73;3.40;;;6.70;99.90;;;;;;5097240;28;20221;-41
2022/04/24 02:25:55;;;;;;;6.37;3.10;;;6.60;99.90;;;;;;5095217;28;20193;-40
2022/04/24 02:28:21;;;;;;;5.03;3.70;;;6.60;99.90;;;;;;5087083;28;20209;-39
2022/04/24 02:30:50;;;;;;;4.57;3.00;;;6.60;99.90;;;;;;5115288;28;20895;-41
2022/04/24 02:33:18;;;;;;;5.60;3.30;;;6.50;99.90;;;;;;5087644;28;20209;-39
2022/04/24 02:35:45;;;;;;;4.93;3.60;;;6.50;99.90;;;;;;5090538;27;20279;-39
2022/04/24 02:38:13;;;;;;;7.83;3.43;;;6.50;99.90;;;;;;5101178;28;20202;-39
2022/04/24 02:40:40;;;;;;;6.37;3.63;;;6.40;99.90;;;;;;5092355;28;20213;-39
2022/04/24 02:43:06;;;;;;;4.43;3.00;;;6.40;99.90;;;;;;5092213;28;20217;-40
2022/04/24 02:45:34;;;;;;;6.30;3.10;;;6.30;99.90;;;;;;5108329;27;20319;-39
2022/04/24 02:48:02;;;;;;;6.07;3.27;;;6.30;99.90;;;;;;5100021;28;20201;-39
2022/04/24 02:50:29;;;;;;;5.43;3.40;;;6.30;99.90;;;;;;5095329;28;20234;-39
2022/04/24 02:52:57;;;;;;;5.10;3.13;;;6.30;99.90;;;;;;5098975;27;20231;-38
2022/04/24 02:55:25;;;;;;;5.80;3.40;;;6.30;99.90;;;;;;5091837;28;20205;-39
2022/04/24 02:57:53;;;;;;;5.17;2.97;;;6.30;99.90;;;;;;5074404;27;20206;-39
2022/04/24 03:00:22;;;;;;;4.20;3.20;;;6.20;99.90;;;;;;5109823;27;20297;-40
2022/04/24 03:02:49;;;;;;;2.77;2.53;;;6.20;99.90;;;;;;5095888;27;20222;-40
2022/04/24 03:05:20;;;;;;;4.73;2.83;;;6.20;99.90;;;;;;5093770;28;20197;-38
2022/04/24 03:07:48;;;;;;;7.33;3.07;;;6.10;99.90;;;;;;5094807;27;20194;-38
2022/04/24 03:10:16;;;;;;;3.37;2.93;;;6.10;99.90;;;;;;5093147;28;20202;-41
2022/04/24 03:12:44;;;;;;;4.73;3.17;;;6.10;99.90;;;;;;5098344;28;20913;-41
2022/04/24 03:15:12;;;;;;;8.63;3.20;;;6.10;99.90;;;;;;5106063;27;20204;-39
2022/04/24 03:17:40;;;;;;;4.53;3.10;;;6.10;99.90;;;;;;5113106;27;20283;-39
2022/04/24 03:20:09;;;;;;;5.40;3.20;;;6.00;99.90;;;;;;5094829;27;20252;-43
2022/04/24 03:22:37;;;;;;;4.43;3.20;;;6.00;99.90;;;;;;5090921;27;20591;-40
2022/04/24 03:25:06;;;;;;;4.27;3.43;;;6.00;99.90;;;;;;5087680;28;20211;-39
2022/04/24 03:27:33;;;;;;;7.03;3.60;;;6.00;99.90;;;;;;5093721;28;20205;-39
2022/04/24 03:30:00;;;;;;;9.23;4.00;;;6.00;99.90;;;;;;5076135;27;20567;-39
2022/04/24 03:32:31;;;;;;;5.53;3.30;;;5.90;99.90;;;;;;5107483;27;20233;-39
2022/04/24 03:34:58;;;;;;;5.23;3.73;;;5.90;99.90;;;;;;5092360;27;20228;-39
2022/04/24 03:37:25;;;;;;;6.83;3.77;;;5.90;99.90;;;;;;5090635;28;20259;-42
2022/04/24 03:39:53;;;;;;;6.03;4.03;;;5.90;99.90;;;;;;5097444;27;20227;-42
2022/04/24 03:42:20;;;;;;;5.60;3.73;;;5.90;99.90;;;;;;5099271;28;20657;-40
2022/04/24 03:44:47;;;;;;;8.77;4.63;;;5.90;99.90;;;;;;5079876;27;20213;-41
2022/04/24 03:47:14;;;;;;;7.07;4.37;;;5.90;99.90;;;;;;5102151;27;20190;-43
2022/04/24 03:49:41;;;;;;;7.37;3.97;;;5.90;99.90;;;;;;5092245;28;20236;-40
2022/04/24 03:52:11;;;;;;;6.00;3.70;;;5.90;99.90;;;;;;5092288;27;20218;-42
2022/04/24 03:54:38;;;;;;;9.83;5.00;;;5.90;99.90;;;;;;5090733;27;20202;-40
2022/04/24 03:57:06;;;;;;;7.83;4.53;;;5.90;99.90;;;;;;5090044;28;20223;-41
2022/04/24 03:59:33;;;;;;;6.47;4.13;;;5.90;99.90;;;;;;5089141;28;20624;-41
2022/04/24 04:02:00;;;;;;;8.20;4.47;;;5.80;99.90;;;;;;5081300;27;20214;-40
2022/04/24 04:04:28;;;;;;;5.87;3.80;;;5.80;99.90;;;;;;5098261;27;20217;-40
2022/04/24 04:06:55;;;;;;;6.07;4.17;;;5.80;99.90;;;;;;5094530;28;20404;-41
2022/04/24 04:09:22;;;;;;;6.63;4.70;;;5.80;99.90;;;;;;5099170;28;20201;-42
2022/04/24 04:11:49;;;;;;;5.77;5.13;;;5.80;99.90;;;;;;5097838;27;20247;-40
2022/04/24 04:14:17;;;;;;;7.90;5.20;;;5.90;99.90;;;;;;5092108;28;20201;-40
2022/04/24 04:16:45;;;;;;;11.57;5.63;;;5.90;99.90;;;;;;5088520;27;20292;-43
2022/04/24 04:19:11;;;;;;;8.63;5.90;;;5.90;99.90;;;;;;5094767;27;20577;-41
2022/04/24 04:21:38;;;;;;;7.87;5.27;;;5.90;99.90;;;;;;5098500;27;20200;-40
2022/04/24 04:24:08;;;;;;;7.40;4.73;;;5.90;99.90;;;;;;5095764;27;20711;-41
2022/04/24 04:26:35;;;;;;;9.63;5.83;;;5.90;99.90;;;;;;5089389;27;20202;-41
2022/04/24 04:29:02;;;;;;;8.87;5.70;;;5.90;99.90;;;;;;5105333;28;20740;-41
2022/04/24 04:31:30;;;;;;;9.00;5.77;;;5.90;99.90;;;;;;5085670;27;20564;-40
2022/04/24 04:33:57;;;;;;;8.97;6.13;;;5.90;99.90;;;;;;5110449;27;20981;-39
2022/04/24 04:36:24;;;;;;;10.97;5.70;;;6.00;99.90;;;;;;5101894;27;20193;-40
2022/04/24 04:38:50;;;;;;;9.27;6.03;;;6.00;99.90;;;;;;5092548;28;20205;-40
2022/04/24 04:41:17;;;;;;;13.30;5.87;;;6.10;99.90;;;;;;5091090;28;20677;-40
2022/04/24 04:43:44;;;;;;;9.13;6.40;;;6.10;99.90;;;;;;5090854;28;20224;-40
2022/04/24 04:46:11;;;;;;;10.00;5.97;;;6.10;99.90;;;;;;5094183;28;20220;-39
2022/04/24 04:48:39;;;;;;;9.47;5.93;;;6.10;99.90;;;;;;5096019;27;20204;-40
2022/04/24 04:51:05;;;;;;;9.13;5.37;;;6.20;99.90;;;;;;5101961;27;20236;-42
2022/04/24 04:53:34;;;;;;;10.20;5.67;;;6.20;99.90;;;;;;5105244;27;20236;-40
2022/04/24 04:56:01;;;;;;;9.90;5.27;;;6.20;99.90;;;;;;5092279;28;20208;-39
2022/04/24 04:58:28;;;;;;;6.60;4.93;;;6.30;99.90;;;;;;5094225;27;20208;-39
2022/04/24 05:00:55;;;;;;;8.63;5.43;;;6.30;99.90;;;;;;5095178;28;20217;-42
2022/04/24 05:03:22;;;;;;;11.07;5.17;;;6.40;99.90;;;;;;5097297;27;20311;-40
2022/04/24 05:05:50;;;;;;;8.27;5.10;;;6.40;99.90;;;;;;5088326;27;20826;-41
2022/04/24 05:08:17;;;;;;;10.70;5.27;;;6.50;99.90;;;;;;5091852;27;20210;-39
2022/04/24 05:10:44;;;;;;;10.90;4.90;;;6.50;99.90;;;;;;5083230;28;20784;-42
2022/04/24 05:13:11;;;;;;;10.00;4.47;;;6.50;99.90;;;;;;5100053;27;20594;-41
2022/04/24 05:15:38;;;;;;;7.47;4.17;;;6.60;99.90;;;;;;5096895;28;20208;-40
2022/04/24 05:18:05;;;;;;;7.07;4.40;;;6.60;99.90;;;;;;5103293;28;20206;-39
2022/04/24 05:20:32;;;;;;;8.60;4.70;;;6.70;99.90;;;;;;5093358;27;20216;-40
2022/04/24 05:23:07;;;;;;;9.00;4.90;;;6.70;99.90;;;;;;5090040;27;20930;-39
2022/04/24 05:25:34;;;;;;;7.37;4.30;;;6.80;99.90;;;;;;5100736;27;20238;-40
2022/04/24 05:28:01;;;;;;;7.13;4.83;;;6.80;99.90;;;;;;5083557;27;20205;-40
2022/04/24 05:30:29;;;;;;;8.80;4.50;;;6.90;99.90;;;;;;5083125;28;20201;-41
2022/04/24 05:32:56;;;;;;;7.73;4.57;;;7.00;99.90;;;;;;5078688;28;20304;-40
2022/04/24 05:35:23;;;;;;;6.43;4.23;;;7.10;99.90;;;;;;5097390;27;20201;-39
2022/04/24 05:37:50;;;;;;;7.07;4.57;;;7.10;99.90;;;;;;5100606;27;20200;-40
2022/04/24 05:40:19;;;;;;;8.70;4.20;;;7.20;99.90;;;;;;5081969;28;20251;-41
2022/04/24 05:42:48;;;;;;;8.37;4.43;;;7.20;99.90;;;;;;5090566;28;20221;-40
2022/04/24 05:45:18;;;;;;;5.20;4.00;;;7.30;99.90;;;;;;5093459;28;20194;-40
2022/04/24 05:47:46;;;;;;;4.73;4.20;;;7.40;99.90;;;;;;5090831;28;20201;-40
2022/04/24 05:50:14;;;;;;;7.80;4.27;;;7.50;99.90;;;;;;5081517;28;20248;-40
2022/04/24 05:52:41;;;;;;;8.50;3.80;;;7.50;99.90;;;;;;5111126;27;20214;-40
2022/04/24 05:55:08;;;;;;;6.73;4.43;;;7.50;99.90;;;;;;5085401;27;20623;-41
2022/04/24 05:57:37;;;;;;;5.97;3.43;;;7.60;99.90;;;;;;5097069;28;20650;-41
2022/04/24 06:00:04;;;;;;;5.10;4.13;;;7.70;99.90;;;;;;5078816;28;20360;-40
2022/04/24 06:02:39;;;;;;;7.17;3.80;;;7.70;99.90;;;;;;5091969;28;20646;-39
2022/04/24 06:05:07;;;;;;;6.43;3.47;;;7.80;99.90;;;;;;5083032;28;20908;-40
2022/04/24 06:07:34;;;;;;;5.67;3.30;;;7.90;99.90;;;;;;5075269;27;20217;-40
2022/04/24 06:10:00;;;;;;;5.33;3.37;;;7.90;99.90;;;;;;5085110;28;20193;-40
2022/04/24 06:12:27;;;;;;;4.77;3.17;;;8.00;99.90;;;;;;5093704;28;20217;-40
2022/04/24 06:15:02;;;;;;;4.50;3.53;;;8.00;99.90;;;;;;5091186;28;20250;-43
2022/04/24 06:17:28;;;;;;;4.43;3.10;;;8.10;99.90;;;;;;5100382;28;20193;-39
2022/04/24 06:19:55;;;;;;;4.60;3.43;;;8.20;99.90;;;;;;5087528;28;20210;-40
2022/04/24 06:22:22;;;;;;;5.47;3.80;;;8.30;99.90;;;;;;5088280;28;20213;-40
2022/04/24 06:24:50;;;;;;;4.73;3.47;;;8.30;99.90;;;;;;5104008;27;20188;-39
2022/04/24 06:27:17;;;;;;;5.43;3.67;;;8.40;99.90;;;;;;5091894;28;20225;-41
2022/04/24 06:29:44;;;;;;;3.63;3.27;;;8.40;99.90;;;;;;5094487;28;20205;-40
2022/04/24 06:32:12;;;;;;;5.03;3.00;;;8.50;99.90;;;;;;5094092;27;20230;-39
2022/04/24 06:34:38;;;;;;;3.00;2.70;;;8.50;99.90;;;;;;5096258;28;20205;-41
2022/04/24 06:37:06;;;;;;;6.63;3.50;;;8.60;99.90;;;;;;5086934;28;20503;-40
2022/04/24 06:39:33;;;;;;;3.27;2.97;;;8.70;99.90;;;;;;5097550;28;20276;-42
2022/04/24 06:42:01;;;;;;;4.40;3.27;;;8.70;99.90;;;;;;5092380;28;20221;-39
2022/04/24 06:44:28;;;;;;;4.47;2.90;;;8.70;99.90;;;;;;5089415;28;20249;-40
2022/04/24 06:46:55;;;;;;;5.30;3.13;;;8.80;99.90;;;;;;5090214;28;20210;-40
2022/04/24 06:49:23;;;;;;;6.07;3.40;;;8.80;99.90;;;;;;5094386;28;20228;-41
2022/04/24 06:51:49;;;;;;;4.93;3.30;;;8.90;99.90;;;;;;5097269;28;20229;-40
2022/04/24 06:54:16;;;;;;;7.00;2.70;;;8.90;99.90;;;;;;5096932;28;20188;-39
2022/04/24 06:56:43;;;;;;;3.50;3.10;;;8.90;99.90;;;;;;5097032;27;20216;-42
2022/04/24 06:59:09;;;;;;;5.90;3.37;;;9.00;99.90;;;;;;5084208;28;21787;-40
2022/04/24 07:01:36;;;;;;;3.67;3.33;;;9.00;99.90;;;;;;5097209;28;20220;-44
2022/04/24 07:04:03;;;;;;;5.07;3.70;;;9.10;99.90;;;;;;5096378;28;20325;-40
2022/04/24 07:06:31;;;;;;;3.23;2.93;;;9.20;99.90;;;;;;5102004;28;20280;-42
2022/04/24 07:08:58;;;;;;;6.17;3.73;;;9.10;99.90;;;;;;5076442;28;20213;-40
2022/04/24 07:11:25;;;;;;;4.53;2.97;;;9.20;99.90;;;;;;5113242;28;20202;-40
2022/04/24 07:13:52;;;;;;;4.77;3.50;;;9.20;99.90;;;;;;5094865;27;20689;-40
2022/04/24 07:16:19;;;;;;;6.00;3.17;;;9.30;99.90;;;;;;5086382;28;20680;-45
2022/04/24 07:18:46;;;;;;;4.80;2.53;;;9.40;99.90;;;;;;5093039;28;20212;-46
2022/04/24 07:21:13;;;;;;;4.57;3.23;;;9.40;99.90;;;;;;5094771;28;20314;-44
2022/04/24 07:23:42;;;;;;;3.17;2.80;;;9.50;99.90;;;;;;5102615;27;20212;-42
2022/04/24 07:26:08;;;;;;;4.27;3.03;;;9.60;99.90;;;;;;5086156;27;20201;-42
2022/04/24 07:28:36;;;;;;;3.27;2.77;;;9.70;99.90;;;;;;5101841;27;20212;-40
2022/04/24 07:31:02;;;;;;;4.80;3.10;;;9.80;99.90;;;;;;5096439;27;20958;-39
2022/04/24 07:33:29;;;;;;;6.67;2.60;;;9.90;99.90;;;;;;5102179;27;20886;-41
2022/04/24 07:35:56;;;;;;;4.47;3.07;;;10.00;99.90;;;;;;5096758;28;20190;-40
2022/04/24 07:38:23;;;;;;;3.43;2.90;;;10.00;99.90;;;;;;5096088;28;20187;-40
2022/04/24 07:40:51;;;;;;;3.27;2.97;;;10.00;99.90;;;;;;5088571;27;20212;-44
2022/04/24 07:43:18;;;;;;;4.97;2.57;;;10.10;99.90;;;;;;5099425;27;20386;-42
2022/04/24 07:45:47;;;;;;;2.93;2.57;;;10.10;99.90;;;;;;5102849;27;20200;-41
2022/04/24 07:48:14;;;;;;;4.93;3.10;;;10.20;99.90;;;;;;5091810;27;20199;-40
2022/04/24 07:50:42;;;;;;;2.93;2.63;;;10.30;99.90;;;;;;5086851;28;20194;-42
2022/04/24 07:53:10;;;;;;;3.53;2.67;;;10.40;99.90;;;;;;5098094;27;20936;-40
2022/04/24 07:55:37;;;;;;;2.77;2.33;;;10.40;99.90;;;;;;5102202;27;20201;-41
2022/04/24 07:58:05;;;;;;;5.70;2.57;;;10.40;99.90;;;;;;5086131;27;20206;-41
2022/04/24 08:00:33;;;;;;;3.53;2.33;;;10.40;99.90;;;;;;5104502;27;20296;-40
2022/04/24 08:03:03;;;;;;;4.87;2.90;;;10.50;99.90;;;;;;5095890;27;20240;-42
2022/04/24 08:05:32;;;;;;;3.07;2.60;;;10.50;99.90;;;;;;5095189;27;20927;-40
2022/04/24 08:08:00;;;;;;;3.33;2.80;;;10.60;99.90;;;;;;5094016;28;20707;-39
2022/04/24 08:10:31;;;;;;;3.70;2.57;;;10.70;99.90;;;;;;5086999;27;20201;-40
2022/04/24 08:12:58;;;;;;;6.40;2.47;;;10.80;99.90;;;;;;5082306;27;20225;-40
2022/04/24 08:15:27;;;;;;;4.07;2.80;;;10.90;99.90;;;;;;5094634;27;20559;-39
2022/04/24 08:17:53;;;;;;;5.27;2.80;;;11.00;99.90;;;;;;5099664;27;20647;-40
2022/04/24 08:20:21;;;;;;;3.97;2.37;;;11.10;99.90;;;;;;5096200;27;20213;-40
2022/04/24 08:22:50;;;;;;;3.90;2.73;;;11.20;99.90;;;;;;5097131;27;20216;-42
2022/04/24 08:25:18;;;;;;;7.67;2.90;;;11.20;99.90;;;;;;5094048;27;20205;-40
2022/04/24 08:27:47;;;;;;;4.10;2.60;;;11.30;99.90;;;;;;5081763;27;20213;-39
2022/04/24 08:30:15;;;;;;;3.43;2.50;;;11.20;99.90;;;;;;5102339;27;20730;-42
2022/04/24 08:32:44;;;;;;;5.70;2.83;;;11.10;99.90;;;;;;5093928;27;20236;-42
2022/04/24 08:35:12;;;;;;;3.80;2.57;;;11.20;99.90;;;;;;5086186;28;20208;-44
2022/04/24 08:37:39;;;;;;;3.40;2.43;;;11.10;99.90;;;;;;5093053;28;20189;-40
2022/04/24 08:40:07;;;;;;;3.37;2.40;;;11.10;99.90;;;;;;5093444;28;20208;-42
2022/04/24 08:42:35;;;;;;;2.43;2.20;;;11.10;99.90;;;;;;5081006;27;20231;-41
2022/04/24 08:45:04;;;;;;;3.53;2.77;;;11.20;99.90;;;;;;5099215;27;20201;-41
2022/04/24 08:47:32;;;;;;;3.50;2.43;;;11.20;99.90;;;;;;5080596;28;20201;-40
2022/04/24 08:50:01;;;;;;;4.30;2.70;;;11.20;99.90;;;;;;5100439;27;20670;-41
2022/04/24 08:52:30;;;;;;;3.37;2.40;;;11.30;99.90;;;;;;5093672;27;20209;-40
2022/04/24 08:54:58;;;;;;;3.13;2.40;;;11.30;99.90;;;;;;5098649;27;20201;-40
2022/04/24 08:57:27;;;;;;;3.63;2.37;;;11.40;99.90;;;;;;5079442;27;20208;-41
2022/04/24 08:59:54;;;;;;;3.73;2.60;;;11.40;99.90;;;;;;5100522;27;20204;-40
2022/04/24 09:02:21;;;;;;;3.17;2.43;;;11.50;99.90;;;;;;5098463;27;20209;-42
2022/04/24 09:04:49;;;;;;;4.73;2.50;;;11.50;99.90;;;;;;5099166;27;20210;-41
2022/04/24 09:07:18;;;;;;;4.07;2.20;;;11.50;99.90;;;;;;5098120;28;20239;-40
2022/04/24 09:09:47;;;;;;;2.83;2.40;;;11.50;99.90;;;;;;5093812;28;20193;-47
2022/04/24 09:12:16;;;;;;;3.03;2.73;;;11.50;99.90;;;;;;5097691;27;20224;-41
2022/04/24 09:14:48;;;;;;;4.97;2.53;;;11.40;99.90;;;;;;5082794;27;20204;-41
2022/04/24 09:17:18;;;;;;;6.30;2.83;;;11.70;99.90;;;;;;5094264;27;20208;-39
2022/04/24 09:19:45;;;;;;;2.43;2.17;;;11.80;99.90;;;;;;5096672;27;20684;-41
2022/04/24 09:22:13;;;;;;;3.60;2.47;;;11.70;99.90;;;;;;5094594;27;20583;-41
2022/04/24 09:24:46;;;;;;;10.20;2.53;;;11.80;99.90;;;;;;5104873;27;21045;-40
2022/04/24 09:27:22;;;;;;;3.30;2.93;;;11.80;99.90;;;;;;5083230;28;20293;-45
2022/04/24 09:29:54;;;;;;;2.77;2.33;;;11.70;99.90;;;;;;5077290;27;20201;-41
2022/04/24 09:32:22;;;;;;;3.67;2.73;;;11.70;99.90;;;;;;5094222;27;20269;-41
2022/04/24 09:34:50;;;;;;;5.87;2.67;;;11.70;99.90;;;;;;5089908;27;20730;-41
2022/04/24 09:37:17;;;;;;;4.47;2.53;;;11.70;99.90;;;;;;5081376;28;20242;-43
2022/04/24 09:39:46;;;;;;;6.40;2.53;;;11.60;99.90;;;;;;5081757;28;20294;-41
2022/04/24 09:42:14;;;;;;;3.57;2.73;;;11.60;99.90;;;;;;5081165;28;20694;-41
2022/04/24 09:44:43;;;;;;;5.57;2.30;;;11.80;99.90;;;;;;5081320;27;20550;-41
2022/04/24 09:47:10;;;;;;;7.20;2.73;;;11.80;99.90;;;;;;5100985;27;20205;-42
2022/04/24 09:49:39;;;;;;;9.80;2.77;;;12.00;99.90;;;;;;5090929;27;20294;-40
2022/04/24 09:52:14;;;;;;;2.77;2.07;;;11.80;99.90;;;;;;5093958;28;20222;-40
2022/04/24 09:54:42;;;;;;;3.53;2.43;;;11.70;99.90;;;;;;5087483;28;20200;-41
2022/04/24 09:57:11;;;;;;;4.73;2.53;;;11.70;99.90;;;;;;5096579;27;20201;-43
2022/04/24 09:59:39;;;;;;;5.53;2.80;;;11.60;99.90;;;;;;5078871;27;20212;-41
2022/04/24 10:02:06;;;;;;;3.00;2.23;;;11.60;99.90;;;;;;5102411;27;20216;-45
2022/04/24 10:04:36;;;;;;;5.13;2.90;;;11.60;99.90;;;;;;5080535;27;20469;-41
2022/04/24 10:07:06;;;;;;;5.83;2.50;;;11.70;99.90;;;;;;5097363;28;20205;-42
2022/04/24 10:09:35;;;;;;;3.67;2.17;;;11.60;99.90;;;;;;5091298;28;20224;-41
2022/04/24 10:12:07;;;;;;;2.77;2.33;;;11.70;99.90;;;;;;5095226;27;20213;-43
2022/04/24 10:14:41;;;;;;;3.70;2.40;;;11.80;99.90;;;;;;5078485;27;20308;-40
2022/04/24 10:17:45;;;;;;;3.20;2.43;;;11.90;99.90;;;;;;5113863;27;20660;-39
2022/04/24 10:20:31;;;;;;;6.47;2.70;;;12.00;99.90;;;;;;5044358;28;20205;-40
2022/04/24 10:22:59;;;;;;;3.40;2.80;;;12.10;99.90;;;;;;5096320;28;20225;-40
2022/04/24 10:25:31;;;;;;;3.80;2.50;;;12.10;99.90;;;;;;5089187;27;20193;-40
2022/04/24 10:28:09;;;;;;;6.43;2.80;;;12.10;99.90;;;;;;5093228;28;20720;-41
2022/04/24 10:30:37;;;;;;;3.97;2.17;;;12.10;99.90;;;;;;5080265;28;20233;-40
2022/04/24 10:33:15;;;;;;;3.50;2.47;;;12.10;99.90;;;;;;5096287;28;20214;-41
2022/04/24 10:35:52;;;;;;;4.03;2.47;;;12.20;99.90;;;;;;5085103;28;20206;-39
2022/04/24 10:38:21;;;;;;;5.40;2.23;;;12.30;99.90;;;;;;5095614;28;20200;-41
2022/04/24 10:41:00;;;;;;;4.17;2.70;;;12.40;99.90;;;;;;5094817;28;20198;-41
2022/04/24 10:43:35;;;;;;;5.27;2.90;;;12.50;99.90;;;;;;5091284;28;20217;-40
2022/04/24 10:46:15;;;;;;;6.73;2.80;;;12.40;99.90;;;;;;5085521;28;20201;-39
2022/04/24 10:48:42;;;;;;;3.13;2.83;;;12.40;99.90;;;;;;5104649;27;20898;-42
2022/04/24 10:51:09;;;;;;;3.43;2.77;;;12.50;99.90;;;;;;5091052;28;20201;-43
2022/04/24 10:53:49;;;;;;;5.00;2.57;;;12.60;99.90;;;;;;5089017;27;20214;-41
2022/04/24 10:56:16;;;;;;;4.40;2.90;;;12.60;99.90;;;;;;5093710;27;20830;-44
2022/04/24 10:58:43;;;;;;;3.80;2.30;;;12.60;99.90;;;;;;5101018;28;20201;-40
2022/04/24 11:01:15;;;;;;;3.80;2.57;;;12.60;99.90;;;;;;5090643;28;20202;-43
2022/04/24 11:03:43;;;;;;;3.10;2.83;;;12.70;99.90;;;;;;5099608;27;20216;-41
2022/04/24 11:06:20;;;;;;;4.07;2.70;;;12.60;99.90;;;;;;5107218;27;20201;-42
2022/04/24 11:08:48;;;;;;;4.37;2.77;;;12.70;99.90;;;;;;5100935;28;20206;-40
2022/04/24 11:11:16;;;;;;;4.87;2.70;;;13.00;99.90;;;;;;5098836;28;20608;-42
2022/04/24 11:13:43;;;;;;;4.13;2.30;;;13.00;99.90;;;;;;5092079;28;20220;-39
2022/04/24 11:16:12;;;;;;;3.70;2.93;;;12.80;99.90;;;;;;5087013;28;20190;-42
2022/04/24 11:18:38;;;;;;;5.10;2.40;;;12.60;99.90;;;;;;5084930;27;20202;-41
2022/04/24 11:21:08;;;;;;;5.30;2.60;;;12.70;99.90;;;;;;5097593;27;20183;-40
2022/04/24 11:23:37;;;;;;;7.10;2.77;;;12.70;99.90;;;;;;5095970;27;20221;-42
2022/04/24 11:26:08;;;;;;;10.47;3.17;;;12.60;99.90;;;;;;5096000;27;20189;-43
2022/04/24 11:28:36;;;;;;;4.67;2.93;;;12.70;99.90;;;;;;5096727;28;20285;-42
2022/04/24 11:31:25;;;;;;;6.30;3.00;;;12.80;99.90;;;;;;5092855;28;20181;-42
2022/04/24 11:33:56;;;;;;;6.17;2.57;;;12.70;99.90;;;;;;5077852;27;20293;-41
2022/04/24 11:36:24;;;;;;;6.93;2.83;;;12.70;99.90;;;;;;5109503;27;20669;-41
2022/04/24 11:38:51;;;;;;;7.00;3.20;;;12.80;99.90;;;;;;5096478;27;20198;-42
2022/04/24 11:41:20;;;;;;;4.37;2.80;;;12.80;99.90;;;;;;5096653;28;20208;-42
2022/04/24 11:43:47;;;;;;;4.27;3.17;;;12.60;99.90;;;;;;5090766;27;20224;-41
2022/04/24 11:51:48;;;;;;;5.87;3.20;;;12.90;99.90;;;;;;5086149;27;20665;-45
2022/04/24 11:54:15;;;;;;;5.70;3.37;;;13.00;99.90;;;;;;5112288;27;20200;-42
2022/04/24 11:56:42;;;;;;;5.03;3.30;;;12.90;99.90;;;;;;5091699;27;20653;-42
2022/04/24 11:59:14;;;;;;;4.87;3.13;;;12.90;99.90;;;;;;5097108;27;20901;-42
2022/04/24 12:01:43;;;;;;;5.50;2.90;;;13.00;99.90;;;;;;5096704;28;20689;-44
2022/04/24 12:04:17;;;;;;;8.07;3.10;;;13.10;99.90;;;;;;5091142;28;20201;-43
2022/04/24 12:06:44;;;;;;;5.27;3.07;;;12.70;99.90;;;;;;5092999;27;20204;-42
2022/04/24 12:09:11;;;;;;;4.07;2.83;;;12.60;99.90;;;;;;5092764;27;20201;-42
2022/04/24 12:11:38;;;;;;;10.20;3.20;;;12.50;99.90;;;;;;5092168;28;21336;-42
2022/04/24 12:14:08;;;;;;;7.10;3.07;;;12.40;99.90;;;;;;5099481;28;20270;-43
2022/04/24 12:16:35;;;;;;;4.47;3.13;;;12.30;99.90;;;;;;5094996;28;20281;-44
2022/04/24 12:19:03;;;;;;;3.57;2.80;;;12.20;99.90;;;;;;5092831;28;20206;-41
2022/04/24 12:21:33;;;;;;;4.73;3.43;;;12.10;99.90;;;;;;5094620;27;20207;-41
2022/04/24 12:24:00;;;;;;;5.70;3.20;;;12.30;99.90;;;;;;5104612;27;20212;-42
2022/04/24 12:26:27;;;;;;;4.50;3.60;;;12.50;99.90;;;;;;5088910;28;20193;-42
2022/04/24 12:28:54;;;;;;;4.10;3.67;;;12.80;99.90;;;;;;5089318;28;20284;-41
2022/04/24 12:31:23;;;;;;;7.10;3.73;;;12.70;99.90;;;;;;5089925;28;20286;-41
2022/04/24 12:33:54;;;;;;;5.93;3.63;;;12.60;99.90;;;;;;5098679;28;20592;-41
2022/04/24 12:36:22;;;;;;;5.20;3.40;;;12.40;99.90;;;;;;5086131;27;20217;-42
2022/04/24 12:38:59;;;;;;;4.67;3.23;;;12.40;99.90;;;;;;5099940;27;20212;-41
2022/04/24 12:41:28;;;;;;;5.37;2.77;;;12.30;99.90;;;;;;5094161;27;20209;-42
2022/04/24 12:43:55;;;;;;;4.50;2.77;;;12.30;99.90;;;;;;5099847;28;20196;-42
2022/04/24 12:46:22;;;;;;;3.57;2.60;;;12.20;99.90;;;;;;5089991;28;20213;-45
2022/04/24 12:48:51;;;;;;;9.67;3.70;;;12.10;99.90;;;;;;5100041;28;20255;-41
2022/04/24 12:51:18;;;;;;;4.77;3.00;;;12.00;99.90;;;;;;5083518;27;20205;-43
2022/04/24 12:53:46;;;;;;;6.77;3.70;;;12.10;99.90;;;;;;5097949;27;20217;-41
2022/04/24 12:56:14;;;;;;;6.37;3.57;;;12.40;99.90;;;;;;5084756;27;20247;-42
2022/04/24 12:58:40;;;;;;;8.20;3.87;;;12.90;99.90;;;;;;5099562;27;20225;-41
2022/04/24 13:01:08;;;;;;;6.77;3.43;;;13.00;99.90;;;;;;5090838;28;20741;-41
2022/04/24 13:03:35;;;;;;;4.17;3.00;;;13.40;99.90;;;;;;5090012;28;20270;-44